sensor_id;sensor_type;location;lat;lon;timestamp;P1;durP1;ratioP1;P2;durP2;ratioP2
6356;SDS011;3211;53.452;-2.264;2022-09-20T00:00:22;7.10;;;4.10;;
6356;SDS011;3211;53.452;-2.264;2022-09-20T00:03:05;5.73;;;4.37;;
6356;SDS011;3211;53.452;-2.264;2022-09-20T00:05:47;4.67;;;3.87;;
6356;SDS011;3211;53.452;-2.264;2022-09-20T00:08:30;6.80;;;4.07;;
6356;SDS011;3211;53.452;-2.264;2022-09-20T00:11:13;4.33;;;3.93;;
6356;SDS011;3211;53.452;-2.264;2022-09-20T00:13:57;4.63;;;4.07;;
6356;SDS011;3211;53.452;-2.264;2022-09-20T00:16:40;4.63;;;3.93;;
6356;SDS011;3211;53.452;-2.264;2022-09-20T00:19:23;4.00;;;3.50;;
6356;SDS011;3211;53.452;-2.264;2022-09-20T00:22:05;4.20;;;3.80;;
6356;SDS011;3211;53.452;-2.264;2022-09-20T00:24:47;5.20;;;3.83;;
6356;SDS011;3211;53.452;-2.264;2022-09-20T00:27:29;4.37;;;3.90;;
6356;SDS011;3211;53.452;-2.264;2022-09-20T00:30:12;5.20;;;3.20;;
6356;SDS011;3211;53.452;-2.264;2022-09-20T00:32:54;4.00;;;3.60;;
6356;SDS011;3211;53.452;-2.264;2022-09-20T00:35:37;5.17;;;3.60;;
6356;SDS011;3211;53.452;-2.264;2022-09-20T00:38:21;5.13;;;3.70;;
6356;SDS011;3211;53.452;-2.264;2022-09-20T00:41:03;4.63;;;3.47;;
6356;SDS011;3211;53.452;-2.264;2022-09-20T00:43:45;4.63;;;3.03;;
6356;SDS011;3211;53.452;-2.264;2022-09-20T00:46:28;4.47;;;3.60;;
6356;SDS011;3211;53.452;-2.264;2022-09-20T00:49:17;4.87;;;3.40;;
6356;SDS011;3211;53.452;-2.264;2022-09-20T00:52:05;3.80;;;3.40;;
6356;SDS011;3211;53.452;-2.264;2022-09-20T00:54:47;5.47;;;3.57;;
6356;SDS011;3211;53.452;-2.264;2022-09-20T00:57:29;5.33;;;3.77;;
6356;SDS011;3211;53.452;-2.264;2022-09-20T01:00:14;3.77;;;3.33;;
6356;SDS011;3211;53.452;-2.264;2022-09-20T01:02:57;3.40;;;3.10;;
6356;SDS011;3211;53.452;-2.264;2022-09-20T01:05:46;5.23;;;3.20;;
6356;SDS011;3211;53.452;-2.264;2022-09-20T01:08:29;4.43;;;2.87;;
6356;SDS011;3211;53.452;-2.264;2022-09-20T01:11:13;4.83;;;3.53;;
6356;SDS011;3211;53.452;-2.264;2022-09-20T01:13:55;10.30;;;6.80;;
6356;SDS011;3211;53.452;-2.264;2022-09-20T01:16:37;4.97;;;3.80;;
6356;SDS011;3211;53.452;-2.264;2022-09-20T01:19:23;4.07;;;3.50;;
6356;SDS011;3211;53.452;-2.264;2022-09-20T01:22:15;5.03;;;3.30;;
6356;SDS011;3211;53.452;-2.264;2022-09-20T01:25:06;4.20;;;3.27;;
6356;SDS011;3211;53.452;-2.264;2022-09-20T01:27:53;3.43;;;3.13;;
6356;SDS011;3211;53.452;-2.264;2022-09-20T01:30:37;4.40;;;3.10;;
6356;SDS011;3211;53.452;-2.264;2022-09-20T01:33:26;5.33;;;3.27;;
6356;SDS011;3211;53.452;-2.264;2022-09-20T01:36:12;3.60;;;2.93;;
6356;SDS011;3211;53.452;-2.264;2022-09-20T01:39:02;3.43;;;3.13;;
6356;SDS011;3211;53.452;-2.264;2022-09-20T01:41:50;4.27;;;3.10;;
6356;SDS011;3211;53.452;-2.264;2022-09-20T01:44:38;3.40;;;2.73;;
6356;SDS011;3211;53.452;-2.264;2022-09-20T01:47:30;2.63;;;2.43;;
6356;SDS011;3211;53.452;-2.264;2022-09-20T01:50:21;5.20;;;3.00;;
6356;SDS011;3211;53.452;-2.264;2022-09-20T01:56:42;3.20;;;2.90;;
6356;SDS011;3211;53.452;-2.264;2022-09-20T02:06:19;4.83;;;3.77;;
6356;SDS011;3211;53.452;-2.264;2022-09-20T02:09:19;8.03;;;3.77;;
6356;SDS011;3211;53.452;-2.264;2022-09-20T02:12:37;4.30;;;2.90;;
6356;SDS011;3211;53.452;-2.264;2022-09-20T02:15:50;6.17;;;3.77;;
6356;SDS011;3211;53.452;-2.264;2022-09-20T02:19:05;4.60;;;3.53;;
6356;SDS011;3211;53.452;-2.264;2022-09-20T02:25:27;4.30;;;3.90;;
6356;SDS011;3211;53.452;-2.264;2022-09-20T02:28:22;4.17;;;3.33;;
6356;SDS011;3211;53.452;-2.264;2022-09-20T02:31:12;5.07;;;4.00;;
6356;SDS011;3211;53.452;-2.264;2022-09-20T02:37:32;5.00;;;3.87;;
6356;SDS011;3211;53.452;-2.264;2022-09-20T02:40:43;7.03;;;4.10;;
6356;SDS011;3211;53.452;-2.264;2022-09-20T02:43:37;4.20;;;3.63;;
6356;SDS011;3211;53.452;-2.264;2022-09-20T02:46:29;5.80;;;4.20;;
6356;SDS011;3211;53.452;-2.264;2022-09-20T02:49:16;4.80;;;3.80;;
6356;SDS011;3211;53.452;-2.264;2022-09-20T02:52:09;4.10;;;3.67;;
6356;SDS011;3211;53.452;-2.264;2022-09-20T02:54:59;5.07;;;4.40;;
6356;SDS011;3211;53.452;-2.264;2022-09-20T02:57:50;4.80;;;3.93;;
6356;SDS011;3211;53.452;-2.264;2022-09-20T03:00:41;4.43;;;3.40;;
6356;SDS011;3211;53.452;-2.264;2022-09-20T03:03:32;5.20;;;3.50;;
6356;SDS011;3211;53.452;-2.264;2022-09-20T03:06:23;5.00;;;4.00;;
6356;SDS011;3211;53.452;-2.264;2022-09-20T03:09:15;5.00;;;4.03;;
6356;SDS011;3211;53.452;-2.264;2022-09-20T03:12:09;4.17;;;3.60;;
6356;SDS011;3211;53.452;-2.264;2022-09-20T03:15:03;4.00;;;3.60;;
6356;SDS011;3211;53.452;-2.264;2022-09-20T03:17:56;6.97;;;4.17;;
6356;SDS011;3211;53.452;-2.264;2022-09-20T03:20:51;5.70;;;4.10;;
6356;SDS011;3211;53.452;-2.264;2022-09-20T03:23:41;4.00;;;3.60;;
6356;SDS011;3211;53.452;-2.264;2022-09-20T03:26:36;5.07;;;4.23;;
6356;SDS011;3211;53.452;-2.264;2022-09-20T03:29:35;4.60;;;3.70;;
6356;SDS011;3211;53.452;-2.264;2022-09-20T03:32:32;7.40;;;4.27;;
6356;SDS011;3211;53.452;-2.264;2022-09-20T03:35:29;5.63;;;3.77;;
6356;SDS011;3211;53.452;-2.264;2022-09-20T03:38:33;7.17;;;6.47;;
6356;SDS011;3211;53.452;-2.264;2022-09-20T03:41:33;4.40;;;3.43;;
6356;SDS011;3211;53.452;-2.264;2022-09-20T03:44:35;4.23;;;3.80;;
6356;SDS011;3211;53.452;-2.264;2022-09-20T03:47:39;6.70;;;4.23;;
6356;SDS011;3211;53.452;-2.264;2022-09-20T03:50:37;4.17;;;3.73;;
6356;SDS011;3211;53.452;-2.264;2022-09-20T03:53:32;5.13;;;4.33;;
6356;SDS011;3211;53.452;-2.264;2022-09-20T04:00:15;6.13;;;4.70;;
6356;SDS011;3211;53.452;-2.264;2022-09-20T04:03:10;5.23;;;4.40;;
6356;SDS011;3211;53.452;-2.264;2022-09-20T04:06:12;6.77;;;4.40;;
6356;SDS011;3211;53.452;-2.264;2022-09-20T04:09:42;5.80;;;4.67;;
6356;SDS011;3211;53.452;-2.264;2022-09-20T04:12:39;8.23;;;5.43;;
6356;SDS011;3211;53.452;-2.264;2022-09-20T04:15:31;5.40;;;4.90;;
6356;SDS011;3211;53.452;-2.264;2022-09-20T04:18:21;5.80;;;4.30;;
6356;SDS011;3211;53.452;-2.264;2022-09-20T04:21:13;5.97;;;5.10;;
6356;SDS011;3211;53.452;-2.264;2022-09-20T04:24:03;5.53;;;5.00;;
6356;SDS011;3211;53.452;-2.264;2022-09-20T04:26:54;6.87;;;4.70;;
6356;SDS011;3211;53.452;-2.264;2022-09-20T04:29:41;6.40;;;5.10;;
6356;SDS011;3211;53.452;-2.264;2022-09-20T04:32:29;6.47;;;4.80;;
6356;SDS011;3211;53.452;-2.264;2022-09-20T04:35:22;6.30;;;5.70;;
6356;SDS011;3211;53.452;-2.264;2022-09-20T04:38:29;5.23;;;4.73;;
6356;SDS011;3211;53.452;-2.264;2022-09-20T04:41:16;5.67;;;5.00;;
6356;SDS011;3211;53.452;-2.264;2022-09-20T04:44:15;7.03;;;5.13;;
6356;SDS011;3211;53.452;-2.264;2022-09-20T04:47:28;6.63;;;5.07;;
6356;SDS011;3211;53.452;-2.264;2022-09-20T04:50:37;8.40;;;5.33;;
6356;SDS011;3211;53.452;-2.264;2022-09-20T04:53:50;5.83;;;4.90;;
6356;SDS011;3211;53.452;-2.264;2022-09-20T04:56:55;8.40;;;5.17;;
6356;SDS011;3211;53.452;-2.264;2022-09-20T05:00:02;7.60;;;5.43;;
6356;SDS011;3211;53.452;-2.264;2022-09-20T05:03:09;7.27;;;5.87;;
6356;SDS011;3211;53.452;-2.264;2022-09-20T05:09:51;7.30;;;5.57;;
6356;SDS011;3211;53.452;-2.264;2022-09-20T05:13:07;8.50;;;6.23;;
6356;SDS011;3211;53.452;-2.264;2022-09-20T05:15:57;6.30;;;5.30;;
6356;SDS011;3211;53.452;-2.264;2022-09-20T05:18:49;6.03;;;5.43;;
6356;SDS011;3211;53.452;-2.264;2022-09-20T05:21:57;6.30;;;5.23;;
6356;SDS011;3211;53.452;-2.264;2022-09-20T05:25:13;10.40;;;6.17;;
6356;SDS011;3211;53.452;-2.264;2022-09-20T05:28:07;9.40;;;6.37;;
6356;SDS011;3211;53.452;-2.264;2022-09-20T05:33:31;8.60;;;6.40;;
6356;SDS011;3211;53.452;-2.264;2022-09-20T05:36:20;8.60;;;6.47;;
6356;SDS011;3211;53.452;-2.264;2022-09-20T05:39:15;12.00;;;6.30;;
6356;SDS011;3211;53.452;-2.264;2022-09-20T05:42:14;7.43;;;6.50;;
6356;SDS011;3211;53.452;-2.264;2022-09-20T05:45:03;8.03;;;6.17;;
6356;SDS011;3211;53.452;-2.264;2022-09-20T05:48:02;7.77;;;6.20;;
6356;SDS011;3211;53.452;-2.264;2022-09-20T05:50:55;10.23;;;6.40;;
6356;SDS011;3211;53.452;-2.264;2022-09-20T05:53:53;8.60;;;5.93;;
6356;SDS011;3211;53.452;-2.264;2022-09-20T05:56:48;7.77;;;6.53;;
6356;SDS011;3211;53.452;-2.264;2022-09-20T05:59:43;10.10;;;7.00;;
6356;SDS011;3211;53.452;-2.264;2022-09-20T06:02:38;8.37;;;6.20;;
6356;SDS011;3211;53.452;-2.264;2022-09-20T06:05:28;9.50;;;7.00;;
6356;SDS011;3211;53.452;-2.264;2022-09-20T06:08:32;8.33;;;7.07;;
6356;SDS011;3211;53.452;-2.264;2022-09-20T06:11:39;9.33;;;7.20;;
6356;SDS011;3211;53.452;-2.264;2022-09-20T06:14:37;9.13;;;6.50;;
6356;SDS011;3211;53.452;-2.264;2022-09-20T06:17:26;9.33;;;6.80;;
6356;SDS011;3211;53.452;-2.264;2022-09-20T06:20:15;8.23;;;6.60;;
6356;SDS011;3211;53.452;-2.264;2022-09-20T06:23:04;9.93;;;7.43;;
6356;SDS011;3211;53.452;-2.264;2022-09-20T06:25:49;10.07;;;7.03;;
6356;SDS011;3211;53.452;-2.264;2022-09-20T06:28:37;9.30;;;7.90;;
6356;SDS011;3211;53.452;-2.264;2022-09-20T06:31:21;9.40;;;7.17;;
6356;SDS011;3211;53.452;-2.264;2022-09-20T06:34:04;12.07;;;7.90;;
6356;SDS011;3211;53.452;-2.264;2022-09-20T06:36:49;14.40;;;7.20;;
6356;SDS011;3211;53.452;-2.264;2022-09-20T06:39:58;9.73;;;7.67;;
6356;SDS011;3211;53.452;-2.264;2022-09-20T06:43:13;11.53;;;7.30;;
6356;SDS011;3211;53.452;-2.264;2022-09-20T06:45:55;10.10;;;7.47;;
6356;SDS011;3211;53.452;-2.264;2022-09-20T06:48:37;10.23;;;7.57;;
6356;SDS011;3211;53.452;-2.264;2022-09-20T06:51:19;9.77;;;7.17;;
6356;SDS011;3211;53.452;-2.264;2022-09-20T06:54:02;9.40;;;7.30;;
6356;SDS011;3211;53.452;-2.264;2022-09-20T06:56:45;9.50;;;7.33;;
6356;SDS011;3211;53.452;-2.264;2022-09-20T06:59:30;8.57;;;7.17;;
6356;SDS011;3211;53.452;-2.264;2022-09-20T07:02:12;9.80;;;7.53;;
6356;SDS011;3211;53.452;-2.264;2022-09-20T07:04:54;9.27;;;6.90;;
6356;SDS011;3211;53.452;-2.264;2022-09-20T07:07:36;7.30;;;6.47;;
6356;SDS011;3211;53.452;-2.264;2022-09-20T07:10:18;8.87;;;6.63;;
6356;SDS011;3211;53.452;-2.264;2022-09-20T07:13:00;9.90;;;7.30;;
6356;SDS011;3211;53.452;-2.264;2022-09-20T07:15:44;9.53;;;7.00;;
6356;SDS011;3211;53.452;-2.264;2022-09-20T07:18:26;10.97;;;7.67;;
6356;SDS011;3211;53.452;-2.264;2022-09-20T07:21:08;9.43;;;7.70;;
6356;SDS011;3211;53.452;-2.264;2022-09-20T07:23:52;10.97;;;7.60;;
6356;SDS011;3211;53.452;-2.264;2022-09-20T07:26:34;8.30;;;6.50;;
6356;SDS011;3211;53.452;-2.264;2022-09-20T07:29:17;8.50;;;7.00;;
6356;SDS011;3211;53.452;-2.264;2022-09-20T07:32:01;10.20;;;6.90;;
6356;SDS011;3211;53.452;-2.264;2022-09-20T07:34:43;12.30;;;7.87;;
6356;SDS011;3211;53.452;-2.264;2022-09-20T07:37:26;8.47;;;6.83;;
6356;SDS011;3211;53.452;-2.264;2022-09-20T07:40:09;10.37;;;7.67;;
6356;SDS011;3211;53.452;-2.264;2022-09-20T07:42:51;10.10;;;7.40;;
6356;SDS011;3211;53.452;-2.264;2022-09-20T07:45:35;9.27;;;6.97;;
6356;SDS011;3211;53.452;-2.264;2022-09-20T07:48:20;12.43;;;7.27;;
6356;SDS011;3211;53.452;-2.264;2022-09-20T07:51:06;10.60;;;7.40;;
6356;SDS011;3211;53.452;-2.264;2022-09-20T07:53:52;11.33;;;7.73;;
6356;SDS011;3211;53.452;-2.264;2022-09-20T07:56:35;20.73;;;10.50;;
6356;SDS011;3211;53.452;-2.264;2022-09-20T07:59:17;11.67;;;8.40;;
6356;SDS011;3211;53.452;-2.264;2022-09-20T08:01:59;9.90;;;8.20;;
6356;SDS011;3211;53.452;-2.264;2022-09-20T08:04:42;12.60;;;8.90;;
6356;SDS011;3211;53.452;-2.264;2022-09-20T08:07:24;14.03;;;8.43;;
6356;SDS011;3211;53.452;-2.264;2022-09-20T08:10:06;10.83;;;7.60;;
6356;SDS011;3211;53.452;-2.264;2022-09-20T08:12:49;14.63;;;8.00;;
6356;SDS011;3211;53.452;-2.264;2022-09-20T08:15:31;11.40;;;7.60;;
6356;SDS011;3211;53.452;-2.264;2022-09-20T08:18:13;10.40;;;7.40;;
6356;SDS011;3211;53.452;-2.264;2022-09-20T08:21:02;13.27;;;8.67;;
6356;SDS011;3211;53.452;-2.264;2022-09-20T08:23:46;8.50;;;6.80;;
6356;SDS011;3211;53.452;-2.264;2022-09-20T08:26:28;8.90;;;7.50;;
6356;SDS011;3211;53.452;-2.264;2022-09-20T08:29:11;10.13;;;7.60;;
6356;SDS011;3211;53.452;-2.264;2022-09-20T08:31:54;9.70;;;8.07;;
6356;SDS011;3211;53.452;-2.264;2022-09-20T08:34:37;8.50;;;6.83;;
6356;SDS011;3211;53.452;-2.264;2022-09-20T08:37:21;11.47;;;7.30;;
6356;SDS011;3211;53.452;-2.264;2022-09-20T08:40:03;9.03;;;7.50;;
6356;SDS011;3211;53.452;-2.264;2022-09-20T08:42:46;12.87;;;7.77;;
6356;SDS011;3211;53.452;-2.264;2022-09-20T08:45:28;9.77;;;7.20;;
6356;SDS011;3211;53.452;-2.264;2022-09-20T08:48:12;10.03;;;7.93;;
6356;SDS011;3211;53.452;-2.264;2022-09-20T08:50:57;8.47;;;7.07;;
6356;SDS011;3211;53.452;-2.264;2022-09-20T08:53:41;9.70;;;7.60;;
6356;SDS011;3211;53.452;-2.264;2022-09-20T08:56:26;9.23;;;6.60;;
6356;SDS011;3211;53.452;-2.264;2022-09-20T08:59:13;8.30;;;7.07;;
6356;SDS011;3211;53.452;-2.264;2022-09-20T09:01:57;8.40;;;6.77;;
6356;SDS011;3211;53.452;-2.264;2022-09-20T09:04:40;9.80;;;7.00;;
6356;SDS011;3211;53.452;-2.264;2022-09-20T09:07:23;10.30;;;7.10;;
6356;SDS011;3211;53.452;-2.264;2022-09-20T09:10:08;10.53;;;7.03;;
6356;SDS011;3211;53.452;-2.264;2022-09-20T09:12:50;8.77;;;7.70;;
6356;SDS011;3211;53.452;-2.264;2022-09-20T09:15:33;18.70;;;5.90;;
6356;SDS011;3211;53.452;-2.264;2022-09-20T09:18:17;8.30;;;6.33;;
6356;SDS011;3211;53.452;-2.264;2022-09-20T09:20:59;6.00;;;5.33;;
6356;SDS011;3211;53.452;-2.264;2022-09-20T09:23:48;7.40;;;5.13;;
6356;SDS011;3211;53.452;-2.264;2022-09-20T09:26:35;7.90;;;5.53;;
6356;SDS011;3211;53.452;-2.264;2022-09-20T09:29:19;7.93;;;5.87;;
6356;SDS011;3211;53.452;-2.264;2022-09-20T09:35:15;6.90;;;5.60;;
6356;SDS011;3211;53.452;-2.264;2022-09-20T09:38:04;7.70;;;5.30;;
6356;SDS011;3211;53.452;-2.264;2022-09-20T09:40:57;6.40;;;5.00;;
6356;SDS011;3211;53.452;-2.264;2022-09-20T09:43:41;5.60;;;4.97;;
6356;SDS011;3211;53.452;-2.264;2022-09-20T09:46:24;10.03;;;5.57;;
6356;SDS011;3211;53.452;-2.264;2022-09-20T09:49:11;7.63;;;5.70;;
6356;SDS011;3211;53.452;-2.264;2022-09-20T09:52:00;10.83;;;5.83;;
6356;SDS011;3211;53.452;-2.264;2022-09-20T09:54:45;7.70;;;6.00;;
6356;SDS011;3211;53.452;-2.264;2022-09-20T09:57:36;9.83;;;5.40;;
6356;SDS011;3211;53.452;-2.264;2022-09-20T10:00:29;5.70;;;4.83;;
6356;SDS011;3211;53.452;-2.264;2022-09-20T10:03:17;7.43;;;5.87;;
6356;SDS011;3211;53.452;-2.264;2022-09-20T10:06:13;6.27;;;5.07;;
6356;SDS011;3211;53.452;-2.264;2022-09-20T10:09:14;10.23;;;5.47;;
6356;SDS011;3211;53.452;-2.264;2022-09-20T10:12:10;7.03;;;5.80;;
6356;SDS011;3211;53.452;-2.264;2022-09-20T10:15:04;9.00;;;5.77;;
6356;SDS011;3211;53.452;-2.264;2022-09-20T10:18:00;8.67;;;6.30;;
6356;SDS011;3211;53.452;-2.264;2022-09-20T10:20:59;8.07;;;5.63;;
6356;SDS011;3211;53.452;-2.264;2022-09-20T10:23:56;6.33;;;5.70;;
6356;SDS011;3211;53.452;-2.264;2022-09-20T10:29:55;7.63;;;6.43;;
6356;SDS011;3211;53.452;-2.264;2022-09-20T10:32:49;7.73;;;6.63;;
6356;SDS011;3211;53.452;-2.264;2022-09-20T10:35:46;10.00;;;6.23;;
6356;SDS011;3211;53.452;-2.264;2022-09-20T10:38:40;7.57;;;6.53;;
6356;SDS011;3211;53.452;-2.264;2022-09-20T10:41:34;9.50;;;5.97;;
6356;SDS011;3211;53.452;-2.264;2022-09-20T10:44:46;8.47;;;6.50;;
6356;SDS011;3211;53.452;-2.264;2022-09-20T10:47:37;7.70;;;6.90;;
6356;SDS011;3211;53.452;-2.264;2022-09-20T10:50:27;9.83;;;6.60;;
6356;SDS011;3211;53.452;-2.264;2022-09-20T10:53:24;11.00;;;7.20;;
6356;SDS011;3211;53.452;-2.264;2022-09-20T10:56:16;10.43;;;6.97;;
6356;SDS011;3211;53.452;-2.264;2022-09-20T10:59:10;10.40;;;7.30;;
6356;SDS011;3211;53.452;-2.264;2022-09-20T11:02:13;11.37;;;6.40;;
6356;SDS011;3211;53.452;-2.264;2022-09-20T11:05:17;6.40;;;4.73;;
6356;SDS011;3211;53.452;-2.264;2022-09-20T11:08:08;7.17;;;4.97;;
6356;SDS011;3211;53.452;-2.264;2022-09-20T11:10:54;5.70;;;4.17;;
6356;SDS011;3211;53.452;-2.264;2022-09-20T11:13:41;8.67;;;5.50;;
6356;SDS011;3211;53.452;-2.264;2022-09-20T11:16:31;8.90;;;6.20;;
6356;SDS011;3211;53.452;-2.264;2022-09-20T11:19:21;6.43;;;5.07;;
6356;SDS011;3211;53.452;-2.264;2022-09-20T11:22:12;9.20;;;5.77;;
6356;SDS011;3211;53.452;-2.264;2022-09-20T11:25:00;6.63;;;4.50;;
6356;SDS011;3211;53.452;-2.264;2022-09-20T11:27:47;7.30;;;5.13;;
6356;SDS011;3211;53.452;-2.264;2022-09-20T11:30:33;6.73;;;5.30;;
6356;SDS011;3211;53.452;-2.264;2022-09-20T11:33:22;8.53;;;5.47;;
6356;SDS011;3211;53.452;-2.264;2022-09-20T11:36:08;9.10;;;5.70;;
6356;SDS011;3211;53.452;-2.264;2022-09-20T11:38:56;8.00;;;5.10;;
6356;SDS011;3211;53.452;-2.264;2022-09-20T11:41:42;9.20;;;4.90;;
6356;SDS011;3211;53.452;-2.264;2022-09-20T11:44:27;7.43;;;4.60;;
6356;SDS011;3211;53.452;-2.264;2022-09-20T11:47:12;7.77;;;5.80;;
6356;SDS011;3211;53.452;-2.264;2022-09-20T11:50:03;6.53;;;4.80;;
6356;SDS011;3211;53.452;-2.264;2022-09-20T11:52:57;7.80;;;5.10;;
6356;SDS011;3211;53.452;-2.264;2022-09-20T11:55:53;11.17;;;5.57;;
6356;SDS011;3211;53.452;-2.264;2022-09-20T11:58:42;6.20;;;4.70;;
6356;SDS011;3211;53.452;-2.264;2022-09-20T12:01:29;10.17;;;5.57;;
6356;SDS011;3211;53.452;-2.264;2022-09-20T12:04:18;8.90;;;5.53;;
6356;SDS011;3211;53.452;-2.264;2022-09-20T12:07:06;6.70;;;5.60;;
6356;SDS011;3211;53.452;-2.264;2022-09-20T12:09:58;10.17;;;6.00;;
6356;SDS011;3211;53.452;-2.264;2022-09-20T12:12:43;8.67;;;5.97;;
6356;SDS011;3211;53.452;-2.264;2022-09-20T12:15:28;7.37;;;4.97;;
6356;SDS011;3211;53.452;-2.264;2022-09-20T12:18:25;8.90;;;7.43;;
6356;SDS011;3211;53.452;-2.264;2022-09-20T12:21:13;7.93;;;5.60;;
6356;SDS011;3211;53.452;-2.264;2022-09-20T12:24:01;6.20;;;4.50;;
6356;SDS011;3211;53.452;-2.264;2022-09-20T12:26:58;5.43;;;4.20;;
6356;SDS011;3211;53.452;-2.264;2022-09-20T12:29:52;3.30;;;2.93;;
6356;SDS011;3211;53.452;-2.264;2022-09-20T12:32:47;2.80;;;2.60;;
6356;SDS011;3211;53.452;-2.264;2022-09-20T13:07:35;4.30;;;2.13;;
6356;SDS011;3211;53.452;-2.264;2022-09-20T13:10:25;3.80;;;2.87;;
6356;SDS011;3211;53.452;-2.264;2022-09-20T13:13:25;4.10;;;2.87;;
6356;SDS011;3211;53.452;-2.264;2022-09-20T13:16:15;2.37;;;2.17;;
6356;SDS011;3211;53.452;-2.264;2022-09-20T13:19:03;3.00;;;2.30;;
6356;SDS011;3211;53.452;-2.264;2022-09-20T13:21:51;2.90;;;2.70;;
6356;SDS011;3211;53.452;-2.264;2022-09-20T13:24:37;3.63;;;2.90;;
6356;SDS011;3211;53.452;-2.264;2022-09-20T13:27:23;3.57;;;2.67;;
6356;SDS011;3211;53.452;-2.264;2022-09-20T13:30:13;3.90;;;2.87;;
6356;SDS011;3211;53.452;-2.264;2022-09-20T13:33:13;3.30;;;3.00;;
6356;SDS011;3211;53.452;-2.264;2022-09-20T13:35:57;4.00;;;3.03;;
6356;SDS011;3211;53.452;-2.264;2022-09-20T13:38:40;4.70;;;3.00;;
6356;SDS011;3211;53.452;-2.264;2022-09-20T13:41:26;3.33;;;3.03;;
6356;SDS011;3211;53.452;-2.264;2022-09-20T13:44:13;3.73;;;2.80;;
6356;SDS011;3211;53.452;-2.264;2022-09-20T13:46:57;3.90;;;3.20;;
6356;SDS011;3211;53.452;-2.264;2022-09-20T13:49:41;2.80;;;2.43;;
6356;SDS011;3211;53.452;-2.264;2022-09-20T13:52:24;4.33;;;3.00;;
6356;SDS011;3211;53.452;-2.264;2022-09-20T13:55:19;3.30;;;2.90;;
6356;SDS011;3211;53.452;-2.264;2022-09-20T13:58:06;3.80;;;2.93;;
6356;SDS011;3211;53.452;-2.264;2022-09-20T14:00:58;5.60;;;2.97;;
6356;SDS011;3211;53.452;-2.264;2022-09-20T14:03:43;6.57;;;3.43;;
6356;SDS011;3211;53.452;-2.264;2022-09-20T14:06:25;3.97;;;3.60;;
6356;SDS011;3211;53.452;-2.264;2022-09-20T14:09:14;4.73;;;2.80;;
6356;SDS011;3211;53.452;-2.264;2022-09-20T14:12:03;3.30;;;3.00;;
6356;SDS011;3211;53.452;-2.264;2022-09-20T14:14:45;4.07;;;2.90;;
6356;SDS011;3211;53.452;-2.264;2022-09-20T14:17:28;3.33;;;3.03;;
6356;SDS011;3211;53.452;-2.264;2022-09-20T14:20:14;4.90;;;3.10;;
6356;SDS011;3211;53.452;-2.264;2022-09-20T14:22:57;5.33;;;2.70;;
6356;SDS011;3211;53.452;-2.264;2022-09-20T14:25:39;3.17;;;2.87;;
6356;SDS011;3211;53.452;-2.264;2022-09-20T14:28:22;4.43;;;2.87;;
6356;SDS011;3211;53.452;-2.264;2022-09-20T14:31:07;7.30;;;3.53;;
6356;SDS011;3211;53.452;-2.264;2022-09-20T14:33:53;3.27;;;2.87;;
6356;SDS011;3211;53.452;-2.264;2022-09-20T14:36:38;4.17;;;3.10;;
6356;SDS011;3211;53.452;-2.264;2022-09-20T14:39:20;3.60;;;3.17;;
6356;SDS011;3211;53.452;-2.264;2022-09-20T14:42:02;4.17;;;2.83;;
6356;SDS011;3211;53.452;-2.264;2022-09-20T14:44:56;5.73;;;3.57;;
6356;SDS011;3211;53.452;-2.264;2022-09-20T14:47:48;3.80;;;2.97;;
6356;SDS011;3211;53.452;-2.264;2022-09-20T14:50:35;4.37;;;3.13;;
6356;SDS011;3211;53.452;-2.264;2022-09-20T14:53:24;4.93;;;3.20;;
6356;SDS011;3211;53.452;-2.264;2022-09-20T14:56:07;4.17;;;3.00;;
6356;SDS011;3211;53.452;-2.264;2022-09-20T14:59:05;3.80;;;3.00;;
6356;SDS011;3211;53.452;-2.264;2022-09-20T15:02:02;3.57;;;3.07;;
6356;SDS011;3211;53.452;-2.264;2022-09-20T15:04:52;5.50;;;3.10;;
6356;SDS011;3211;53.452;-2.264;2022-09-20T15:07:36;4.10;;;3.07;;
6356;SDS011;3211;53.452;-2.264;2022-09-20T15:10:18;4.60;;;3.70;;
6356;SDS011;3211;53.452;-2.264;2022-09-20T15:13:00;5.53;;;3.10;;
6356;SDS011;3211;53.452;-2.264;2022-09-20T15:15:42;4.30;;;2.80;;
6356;SDS011;3211;53.452;-2.264;2022-09-20T15:18:26;3.90;;;3.10;;
6356;SDS011;3211;53.452;-2.264;2022-09-20T15:21:13;5.27;;;3.77;;
6356;SDS011;3211;53.452;-2.264;2022-09-20T15:23:55;3.50;;;3.20;;
6356;SDS011;3211;53.452;-2.264;2022-09-20T15:26:37;4.90;;;3.30;;
6356;SDS011;3211;53.452;-2.264;2022-09-20T15:29:19;3.30;;;3.00;;
6356;SDS011;3211;53.452;-2.264;2022-09-20T15:32:01;5.40;;;3.13;;
6356;SDS011;3211;53.452;-2.264;2022-09-20T15:34:46;4.30;;;3.07;;
6356;SDS011;3211;53.452;-2.264;2022-09-20T15:37:28;4.23;;;3.27;;
6356;SDS011;3211;53.452;-2.264;2022-09-20T15:40:10;3.73;;;2.80;;
6356;SDS011;3211;53.452;-2.264;2022-09-20T15:42:53;3.63;;;3.20;;
6356;SDS011;3211;53.452;-2.264;2022-09-20T15:45:38;3.27;;;2.97;;
6356;SDS011;3211;53.452;-2.264;2022-09-20T15:48:29;3.67;;;3.10;;
6356;SDS011;3211;53.452;-2.264;2022-09-20T15:51:13;3.67;;;3.30;;
6356;SDS011;3211;53.452;-2.264;2022-09-20T15:53:55;3.43;;;2.93;;
6356;SDS011;3211;53.452;-2.264;2022-09-20T15:56:39;3.40;;;3.07;;
6356;SDS011;3211;53.452;-2.264;2022-09-20T15:59:21;4.00;;;3.10;;
6356;SDS011;3211;53.452;-2.264;2022-09-20T16:02:03;7.67;;;3.30;;
6356;SDS011;3211;53.452;-2.264;2022-09-20T16:04:46;3.83;;;3.40;;
6356;SDS011;3211;53.452;-2.264;2022-09-20T16:07:31;3.50;;;3.17;;
6356;SDS011;3211;53.452;-2.264;2022-09-20T16:10:13;3.97;;;3.30;;
6356;SDS011;3211;53.452;-2.264;2022-09-20T16:12:55;4.30;;;3.30;;
6356;SDS011;3211;53.452;-2.264;2022-09-20T16:15:37;4.40;;;3.00;;
6356;SDS011;3211;53.452;-2.264;2022-09-20T16:18:19;4.23;;;3.40;;
6356;SDS011;3211;53.452;-2.264;2022-09-20T16:21:33;5.00;;;3.30;;
6356;SDS011;3211;53.452;-2.264;2022-09-20T16:24:21;4.83;;;3.10;;
6356;SDS011;3211;53.452;-2.264;2022-09-20T16:27:04;5.20;;;3.00;;
6356;SDS011;3211;53.452;-2.264;2022-09-20T16:29:47;3.70;;;3.30;;
6356;SDS011;3211;53.452;-2.264;2022-09-20T16:32:29;7.23;;;4.00;;
6356;SDS011;3211;53.452;-2.264;2022-09-20T16:35:11;4.60;;;4.17;;
6356;SDS011;3211;53.452;-2.264;2022-09-20T16:37:53;6.00;;;3.83;;
6356;SDS011;3211;53.452;-2.264;2022-09-20T16:40:37;6.37;;;3.70;;
6356;SDS011;3211;53.452;-2.264;2022-09-20T16:43:19;5.10;;;3.60;;
6356;SDS011;3211;53.452;-2.264;2022-09-20T16:46:04;3.97;;;3.53;;
6356;SDS011;3211;53.452;-2.264;2022-09-20T16:48:46;3.60;;;3.10;;
6356;SDS011;3211;53.452;-2.264;2022-09-20T16:51:32;5.70;;;3.70;;
6356;SDS011;3211;53.452;-2.264;2022-09-20T16:54:15;3.80;;;3.40;;
6356;SDS011;3211;53.452;-2.264;2022-09-20T16:57:00;4.80;;;3.47;;
6356;SDS011;3211;53.452;-2.264;2022-09-20T16:59:42;3.63;;;3.27;;
6356;SDS011;3211;53.452;-2.264;2022-09-20T17:02:25;5.30;;;3.47;;
6356;SDS011;3211;53.452;-2.264;2022-09-20T17:05:07;6.07;;;3.03;;
6356;SDS011;3211;53.452;-2.264;2022-09-20T17:07:50;3.97;;;2.97;;
6356;SDS011;3211;53.452;-2.264;2022-09-20T17:10:32;5.20;;;3.20;;
6356;SDS011;3211;53.452;-2.264;2022-09-20T17:13:15;5.03;;;3.50;;
6356;SDS011;3211;53.452;-2.264;2022-09-20T17:16:00;3.30;;;2.80;;
6356;SDS011;3211;53.452;-2.264;2022-09-20T17:18:44;3.20;;;2.90;;
6356;SDS011;3211;53.452;-2.264;2022-09-20T17:21:27;5.53;;;3.30;;
6356;SDS011;3211;53.452;-2.264;2022-09-20T17:24:10;4.13;;;3.53;;
6356;SDS011;3211;53.452;-2.264;2022-09-20T17:26:53;6.43;;;3.50;;
6356;SDS011;3211;53.452;-2.264;2022-09-20T17:29:36;4.50;;;3.30;;
6356;SDS011;3211;53.452;-2.264;2022-09-20T17:32:18;5.60;;;3.17;;
6356;SDS011;3211;53.452;-2.264;2022-09-20T17:35:00;4.60;;;3.37;;
6356;SDS011;3211;53.452;-2.264;2022-09-20T17:37:43;4.30;;;3.30;;
6356;SDS011;3211;53.452;-2.264;2022-09-20T17:40:25;5.63;;;3.97;;
6356;SDS011;3211;53.452;-2.264;2022-09-20T17:43:06;4.63;;;3.40;;
6356;SDS011;3211;53.452;-2.264;2022-09-20T17:45:50;6.07;;;3.33;;
6356;SDS011;3211;53.452;-2.264;2022-09-20T17:48:32;5.00;;;3.30;;
6356;SDS011;3211;53.452;-2.264;2022-09-20T17:51:15;5.77;;;3.20;;
6356;SDS011;3211;53.452;-2.264;2022-09-20T17:53:58;5.10;;;2.97;;
6356;SDS011;3211;53.452;-2.264;2022-09-20T17:56:40;4.23;;;3.37;;
6356;SDS011;3211;53.452;-2.264;2022-09-20T17:59:23;4.17;;;3.10;;
6356;SDS011;3211;53.452;-2.264;2022-09-20T18:02:07;5.17;;;3.17;;
6356;SDS011;3211;53.452;-2.264;2022-09-20T18:04:50;5.07;;;3.93;;
6356;SDS011;3211;53.452;-2.264;2022-09-20T18:07:33;4.27;;;3.00;;
6356;SDS011;3211;53.452;-2.264;2022-09-20T18:10:15;4.50;;;3.33;;
6356;SDS011;3211;53.452;-2.264;2022-09-20T18:12:57;3.50;;;3.20;;
6356;SDS011;3211;53.452;-2.264;2022-09-20T18:15:41;4.47;;;3.40;;